sensor_id;sensor_type;location;lat;lon;timestamp;temperature;humidity
6078;DHT22;3067;49.470;10.394;2024-02-26T00:01:52;4.70;68.00
6078;DHT22;3067;49.470;10.394;2024-02-26T00:04:19;4.70;68.00
6078;DHT22;3067;49.470;10.394;2024-02-26T00:06:47;4.70;68.10
6078;DHT22;3067;49.470;10.394;2024-02-26T00:09:16;4.70;68.20
6078;DHT22;3067;49.470;10.394;2024-02-26T00:11:43;4.70;68.30
6078;DHT22;3067;49.470;10.394;2024-02-26T00:14:10;4.70;68.30
6078;DHT22;3067;49.470;10.394;2024-02-26T00:16:39;4.70;68.30
6078;DHT22;3067;49.470;10.394;2024-02-26T00:19:08;4.70;68.30
6078;DHT22;3067;49.470;10.394;2024-02-26T00:21:35;4.70;68.10
6078;DHT22;3067;49.470;10.394;2024-02-26T00:24:02;4.70;68.00
6078;DHT22;3067;49.470;10.394;2024-02-26T00:26:29;4.70;68.20
6078;DHT22;3067;49.470;10.394;2024-02-26T00:28:56;4.70;68.30
6078;DHT22;3067;49.470;10.394;2024-02-26T00:31:24;4.70;68.20
6078;DHT22;3067;49.470;10.394;2024-02-26T00:33:51;4.70;68.20
6078;DHT22;3067;49.470;10.394;2024-02-26T00:36:19;4.70;68.20
6078;DHT22;3067;49.470;10.394;2024-02-26T00:38:46;4.70;68.20
6078;DHT22;3067;49.470;10.394;2024-02-26T00:41:17;4.70;68.30
6078;DHT22;3067;49.470;10.394;2024-02-26T00:43:45;4.70;68.30
6078;DHT22;3067;49.470;10.394;2024-02-26T00:46:12;4.70;68.30
6078;DHT22;3067;49.470;10.394;2024-02-26T00:48:39;4.60;68.40
6078;DHT22;3067;49.470;10.394;2024-02-26T00:51:06;4.50;68.60
6078;DHT22;3067;49.470;10.394;2024-02-26T00:53:34;4.50;68.90
6078;DHT22;3067;49.470;10.394;2024-02-26T00:56:01;4.50;69.00
6078;DHT22;3067;49.470;10.394;2024-02-26T00:58:29;4.40;69.00
6078;DHT22;3067;49.470;10.394;2024-02-26T01:00:56;4.40;69.10
6078;DHT22;3067;49.470;10.394;2024-02-26T01:03:23;4.40;69.20
6078;DHT22;3067;49.470;10.394;2024-02-26T01:05:50;4.40;69.20
6078;DHT22;3067;49.470;10.394;2024-02-26T01:08:17;4.40;69.20
6078;DHT22;3067;49.470;10.394;2024-02-26T01:10:45;4.40;69.20
6078;DHT22;3067;49.470;10.394;2024-02-26T01:13:12;4.40;69.10
6078;DHT22;3067;49.470;10.394;2024-02-26T01:15:40;4.40;69.10
6078;DHT22;3067;49.470;10.394;2024-02-26T01:18:07;4.40;69.10
6078;DHT22;3067;49.470;10.394;2024-02-26T01:20:34;4.40;69.30
6078;DHT22;3067;49.470;10.394;2024-02-26T01:23:01;4.40;69.20
6078;DHT22;3067;49.470;10.394;2024-02-26T01:25:28;4.30;69.40
6078;DHT22;3067;49.470;10.394;2024-02-26T01:27:56;4.30;69.70
6078;DHT22;3067;49.470;10.394;2024-02-26T01:30:23;4.40;69.70
6078;DHT22;3067;49.470;10.394;2024-02-26T01:32:50;4.30;69.80
6078;DHT22;3067;49.470;10.394;2024-02-26T01:35:18;4.30;70.10
6078;DHT22;3067;49.470;10.394;2024-02-26T01:37:45;4.30;70.10
6078;DHT22;3067;49.470;10.394;2024-02-26T01:40:13;4.40;70.00
6078;DHT22;3067;49.470;10.394;2024-02-26T01:42:44;4.40;69.90
6078;DHT22;3067;49.470;10.394;2024-02-26T01:45:14;4.40;69.70
6078;DHT22;3067;49.470;10.394;2024-02-26T01:47:48;4.40;69.80
6078;DHT22;3067;49.470;10.394;2024-02-26T01:50:16;4.40;69.70
6078;DHT22;3067;49.470;10.394;2024-02-26T01:52:44;4.40;69.80
6078;DHT22;3067;49.470;10.394;2024-02-26T01:55:12;4.40;69.80
6078;DHT22;3067;49.470;10.394;2024-02-26T01:57:42;4.40;69.90
6078;DHT22;3067;49.470;10.394;2024-02-26T02:00:12;4.40;69.80
6078;DHT22;3067;49.470;10.394;2024-02-26T02:02:39;4.40;69.80
6078;DHT22;3067;49.470;10.394;2024-02-26T02:05:08;4.40;69.90
6078;DHT22;3067;49.470;10.394;2024-02-26T02:07:36;4.40;69.70
6078;DHT22;3067;49.470;10.394;2024-02-26T02:10:04;4.50;69.50
6078;DHT22;3067;49.470;10.394;2024-02-26T02:12:32;4.40;69.60
6078;DHT22;3067;49.470;10.394;2024-02-26T02:15:00;4.40;69.80
6078;DHT22;3067;49.470;10.394;2024-02-26T02:17:29;4.40;69.70
6078;DHT22;3067;49.470;10.394;2024-02-26T02:19:56;4.40;69.70
6078;DHT22;3067;49.470;10.394;2024-02-26T02:22:24;4.40;69.60
6078;DHT22;3067;49.470;10.394;2024-02-26T02:24:52;4.30;69.90
6078;DHT22;3067;49.470;10.394;2024-02-26T02:27:19;4.30;69.90
6078;DHT22;3067;49.470;10.394;2024-02-26T02:29:47;4.30;70.00
6078;DHT22;3067;49.470;10.394;2024-02-26T02:32:16;4.40;70.00
6078;DHT22;3067;49.470;10.394;2024-02-26T02:34:44;4.50;69.70
6078;DHT22;3067;49.470;10.394;2024-02-26T02:37:11;4.50;69.60
6078;DHT22;3067;49.470;10.394;2024-02-26T02:39:40;4.50;69.50
6078;DHT22;3067;49.470;10.394;2024-02-26T02:42:09;4.50;69.50
6078;DHT22;3067;49.470;10.394;2024-02-26T02:44:36;4.50;69.20
6078;DHT22;3067;49.470;10.394;2024-02-26T02:47:03;4.50;69.10
6078;DHT22;3067;49.470;10.394;2024-02-26T02:49:30;4.60;69.10
6078;DHT22;3067;49.470;10.394;2024-02-26T02:51:57;4.70;68.80
6078;DHT22;3067;49.470;10.394;2024-02-26T02:54:24;4.70;68.60
6078;DHT22;3067;49.470;10.394;2024-02-26T02:56:53;4.70;68.50
6078;DHT22;3067;49.470;10.394;2024-02-26T02:59:20;4.70;68.60
6078;DHT22;3067;49.470;10.394;2024-02-26T03:01:47;4.70;68.40
6078;DHT22;3067;49.470;10.394;2024-02-26T03:04:14;4.70;68.50
6078;DHT22;3067;49.470;10.394;2024-02-26T03:06:42;4.70;68.50
6078;DHT22;3067;49.470;10.394;2024-02-26T03:09:09;4.70;68.50
6078;DHT22;3067;49.470;10.394;2024-02-26T03:11:36;4.70;68.40
6078;DHT22;3067;49.470;10.394;2024-02-26T03:14:04;4.70;68.30
6078;DHT22;3067;49.470;10.394;2024-02-26T03:16:32;4.70;68.20
6078;DHT22;3067;49.470;10.394;2024-02-26T03:18:59;4.70;68.10
6078;DHT22;3067;49.470;10.394;2024-02-26T03:21:27;4.70;68.20
6078;DHT22;3067;49.470;10.394;2024-02-26T03:23:54;4.70;68.20
6078;DHT22;3067;49.470;10.394;2024-02-26T03:26:23;4.70;68.20
6078;DHT22;3067;49.470;10.394;2024-02-26T03:28:50;4.70;68.30
6078;DHT22;3067;49.470;10.394;2024-02-26T03:31:18;4.70;68.20
6078;DHT22;3067;49.470;10.394;2024-02-26T03:33:47;4.70;68.30
6078;DHT22;3067;49.470;10.394;2024-02-26T03:36:14;4.70;68.30
6078;DHT22;3067;49.470;10.394;2024-02-26T03:38:42;4.70;68.30
6078;DHT22;3067;49.470;10.394;2024-02-26T03:41:09;4.70;68.40
6078;DHT22;3067;49.470;10.394;2024-02-26T03:43:36;4.70;68.50
6078;DHT22;3067;49.470;10.394;2024-02-26T03:46:03;4.70;68.60
6078;DHT22;3067;49.470;10.394;2024-02-26T03:48:32;4.60;68.70
6078;DHT22;3067;49.470;10.394;2024-02-26T03:50:59;4.60;68.80
6078;DHT22;3067;49.470;10.394;2024-02-26T03:53:26;4.60;68.70
6078;DHT22;3067;49.470;10.394;2024-02-26T03:55:53;4.50;69.00
6078;DHT22;3067;49.470;10.394;2024-02-26T03:58:21;4.50;69.20
6078;DHT22;3067;49.470;10.394;2024-02-26T04:00:48;4.50;69.30
6078;DHT22;3067;49.470;10.394;2024-02-26T04:03:15;4.50;69.50
6078;DHT22;3067;49.470;10.394;2024-02-26T04:05:43;4.50;69.50
6078;DHT22;3067;49.470;10.394;2024-02-26T04:08:10;4.50;69.60
6078;DHT22;3067;49.470;10.394;2024-02-26T04:10:37;4.50;69.70
6078;DHT22;3067;49.470;10.394;2024-02-26T04:13:05;4.50;69.70
6078;DHT22;3067;49.470;10.394;2024-02-26T04:15:32;4.50;69.80
6078;DHT22;3067;49.470;10.394;2024-02-26T04:17:59;4.50;69.90
6078;DHT22;3067;49.470;10.394;2024-02-26T04:20:26;4.50;70.10
6078;DHT22;3067;49.470;10.394;2024-02-26T04:22:54;4.50;70.00
6078;DHT22;3067;49.470;10.394;2024-02-26T04:25:22;4.50;70.00
6078;DHT22;3067;49.470;10.394;2024-02-26T04:27:49;4.50;69.80
6078;DHT22;3067;49.470;10.394;2024-02-26T04:30:16;4.50;69.70
6078;DHT22;3067;49.470;10.394;2024-02-26T04:32:43;4.50;69.70
6078;DHT22;3067;49.470;10.394;2024-02-26T04:35:10;4.50;69.80
6078;DHT22;3067;49.470;10.394;2024-02-26T04:37:38;4.50;69.70
6078;DHT22;3067;49.470;10.394;2024-02-26T04:40:07;4.50;69.80
6078;DHT22;3067;49.470;10.394;2024-02-26T04:42:35;4.50;69.90
6078;DHT22;3067;49.470;10.394;2024-02-26T04:45:02;4.50;70.00
6078;DHT22;3067;49.470;10.394;2024-02-26T04:47:29;4.50;70.00
6078;DHT22;3067;49.470;10.394;2024-02-26T04:49:56;4.50;70.00
6078;DHT22;3067;49.470;10.394;2024-02-26T04:52:23;4.50;70.00
6078;DHT22;3067;49.470;10.394;2024-02-26T04:54:50;4.50;70.00
6078;DHT22;3067;49.470;10.394;2024-02-26T04:57:19;4.50;70.10
6078;DHT22;3067;49.470;10.394;2024-02-26T04:59:46;4.50;70.10
6078;DHT22;3067;49.470;10.394;2024-02-26T05:02:13;4.50;70.10
6078;DHT22;3067;49.470;10.394;2024-02-26T05:04:41;4.50;70.10
6078;DHT22;3067;49.470;10.394;2024-02-26T05:07:08;4.50;70.00
6078;DHT22;3067;49.470;10.394;2024-02-26T05:09:35;4.50;70.10
6078;DHT22;3067;49.470;10.394;2024-02-26T05:12:03;4.60;70.00
6078;DHT22;3067;49.470;10.394;2024-02-26T05:14:32;4.70;69.90
6078;DHT22;3067;49.470;10.394;2024-02-26T05:16:59;4.70;69.60
6078;DHT22;3067;49.470;10.394;2024-02-26T05:19:26;4.80;69.10
6078;DHT22;3067;49.470;10.394;2024-02-26T05:21:53;4.90;69.20
6078;DHT22;3067;49.470;10.394;2024-02-26T05:24:20;4.80;69.30
6078;DHT22;3067;49.470;10.394;2024-02-26T05:26:48;4.80;69.40
6078;DHT22;3067;49.470;10.394;2024-02-26T05:29:15;4.80;69.40
6078;DHT22;3067;49.470;10.394;2024-02-26T05:31:43;4.80;69.30
6078;DHT22;3067;49.470;10.394;2024-02-26T05:34:11;4.90;69.30
6078;DHT22;3067;49.470;10.394;2024-02-26T05:36:38;4.90;69.20
6078;DHT22;3067;49.470;10.394;2024-02-26T05:39:05;4.90;69.40
6078;DHT22;3067;49.470;10.394;2024-02-26T05:41:32;4.90;69.40
6078;DHT22;3067;49.470;10.394;2024-02-26T05:43:59;4.90;69.50
6078;DHT22;3067;49.470;10.394;2024-02-26T05:46:26;4.70;69.80
6078;DHT22;3067;49.470;10.394;2024-02-26T05:48:55;4.70;69.90
6078;DHT22;3067;49.470;10.394;2024-02-26T05:51:22;4.70;69.90
6078;DHT22;3067;49.470;10.394;2024-02-26T05:53:49;4.70;70.00
6078;DHT22;3067;49.470;10.394;2024-02-26T05:56:20;4.80;69.90
6078;DHT22;3067;49.470;10.394;2024-02-26T05:58:47;4.90;69.50
6078;DHT22;3067;49.470;10.394;2024-02-26T06:01:15;4.90;69.30
6078;DHT22;3067;49.470;10.394;2024-02-26T06:03:42;5.00;69.10
6078;DHT22;3067;49.470;10.394;2024-02-26T06:06:11;5.00;68.70
6078;DHT22;3067;49.470;10.394;2024-02-26T06:08:39;5.10;68.70
6078;DHT22;3067;49.470;10.394;2024-02-26T06:11:07;5.10;68.70
6078;DHT22;3067;49.470;10.394;2024-02-26T06:13:34;5.10;68.80
6078;DHT22;3067;49.470;10.394;2024-02-26T06:16:01;5.00;68.90
6078;DHT22;3067;49.470;10.394;2024-02-26T06:18:28;5.10;68.90
6078;DHT22;3067;49.470;10.394;2024-02-26T06:20:55;5.00;68.70
6078;DHT22;3067;49.470;10.394;2024-02-26T06:23:24;5.00;68.90
6078;DHT22;3067;49.470;10.394;2024-02-26T06:25:51;5.10;69.00
6078;DHT22;3067;49.470;10.394;2024-02-26T06:28:18;5.10;68.70
6078;DHT22;3067;49.470;10.394;2024-02-26T06:30:46;5.20;68.50
6078;DHT22;3067;49.470;10.394;2024-02-26T06:33:13;5.20;68.40
6078;DHT22;3067;49.470;10.394;2024-02-26T06:35:40;5.30;68.40
6078;DHT22;3067;49.470;10.394;2024-02-26T06:38:07;5.30;68.30
6078;DHT22;3067;49.470;10.394;2024-02-26T06:40:36;5.30;68.30
6078;DHT22;3067;49.470;10.394;2024-02-26T06:43:03;5.10;68.60
6078;DHT22;3067;49.470;10.394;2024-02-26T06:45:31;5.10;68.70
6078;DHT22;3067;49.470;10.394;2024-02-26T06:47:58;5.10;69.00
6078;DHT22;3067;49.470;10.394;2024-02-26T06:50:25;5.10;69.10
6078;DHT22;3067;49.470;10.394;2024-02-26T06:52:53;5.30;69.00
6078;DHT22;3067;49.470;10.394;2024-02-26T06:55:20;5.30;68.80
6078;DHT22;3067;49.470;10.394;2024-02-26T06:57:48;5.30;68.70
6078;DHT22;3067;49.470;10.394;2024-02-26T07:00:16;5.30;68.60
6078;DHT22;3067;49.470;10.394;2024-02-26T07:02:43;5.40;68.70
6078;DHT22;3067;49.470;10.394;2024-02-26T07:05:10;5.50;68.40
6078;DHT22;3067;49.470;10.394;2024-02-26T07:07:38;5.50;68.40
6078;DHT22;3067;49.470;10.394;2024-02-26T07:10:06;5.50;68.10
6078;DHT22;3067;49.470;10.394;2024-02-26T07:12:33;5.60;68.10
6078;DHT22;3067;49.470;10.394;2024-02-26T07:15:02;5.60;67.90
6078;DHT22;3067;49.470;10.394;2024-02-26T07:17:29;5.60;68.00
6078;DHT22;3067;49.470;10.394;2024-02-26T07:19:56;5.60;68.00
6078;DHT22;3067;49.470;10.394;2024-02-26T07:22:23;5.70;67.70
6078;DHT22;3067;49.470;10.394;2024-02-26T07:24:51;5.70;67.50
6078;DHT22;3067;49.470;10.394;2024-02-26T07:27:18;5.70;67.10
6078;DHT22;3067;49.470;10.394;2024-02-26T07:29:46;5.80;67.30
6078;DHT22;3067;49.470;10.394;2024-02-26T07:32:15;5.80;66.80
6078;DHT22;3067;49.470;10.394;2024-02-26T07:34:42;5.90;66.50
6078;DHT22;3067;49.470;10.394;2024-02-26T07:37:10;5.90;66.80
6078;DHT22;3067;49.470;10.394;2024-02-26T07:39:37;5.80;66.90
6078;DHT22;3067;49.470;10.394;2024-02-26T07:42:05;5.80;66.70
6078;DHT22;3067;49.470;10.394;2024-02-26T07:44:32;5.90;66.90
6078;DHT22;3067;49.470;10.394;2024-02-26T07:46:59;5.90;67.10
6078;DHT22;3067;49.470;10.394;2024-02-26T07:49:28;5.90;67.10
6078;DHT22;3067;49.470;10.394;2024-02-26T07:51:55;5.90;67.20
6078;DHT22;3067;49.470;10.394;2024-02-26T07:54:24;5.90;67.30
6078;DHT22;3067;49.470;10.394;2024-02-26T07:56:51;5.90;67.20
6078;DHT22;3067;49.470;10.394;2024-02-26T07:59:18;5.90;67.20
6078;DHT22;3067;49.470;10.394;2024-02-26T08:01:49;6.00;67.50
6078;DHT22;3067;49.470;10.394;2024-02-26T08:04:16;6.10;67.60
6078;DHT22;3067;49.470;10.394;2024-02-26T08:06:45;6.20;67.50
6078;DHT22;3067;49.470;10.394;2024-02-26T08:09:12;6.30;67.20
6078;DHT22;3067;49.470;10.394;2024-02-26T08:11:39;6.40;66.90
6078;DHT22;3067;49.470;10.394;2024-02-26T08:14:06;6.50;66.80
6078;DHT22;3067;49.470;10.394;2024-02-26T08:16:33;6.60;66.50
6078;DHT22;3067;49.470;10.394;2024-02-26T08:19:00;6.70;66.10
6078;DHT22;3067;49.470;10.394;2024-02-26T08:21:27;6.70;65.80
6078;DHT22;3067;49.470;10.394;2024-02-26T08:23:56;6.80;65.60
6078;DHT22;3067;49.470;10.394;2024-02-26T08:26:23;6.90;65.10
6078;DHT22;3067;49.470;10.394;2024-02-26T08:28:50;6.90;65.20
6078;DHT22;3067;49.470;10.394;2024-02-26T08:31:17;7.00;65.20
6078;DHT22;3067;49.470;10.394;2024-02-26T08:33:44;7.10;64.60
6078;DHT22;3067;49.470;10.394;2024-02-26T08:36:11;7.20;64.60
6078;DHT22;3067;49.470;10.394;2024-02-26T08:38:39;7.20;64.20
6078;DHT22;3067;49.470;10.394;2024-02-26T08:41:07;7.20;64.00
6078;DHT22;3067;49.470;10.394;2024-02-26T08:43:34;7.20;64.30
6078;DHT22;3067;49.470;10.394;2024-02-26T08:46:01;7.20;64.70
6078;DHT22;3067;49.470;10.394;2024-02-26T08:48:29;7.20;64.90
6078;DHT22;3067;49.470;10.394;2024-02-26T08:50:56;7.10;65.40
6078;DHT22;3067;49.470;10.394;2024-02-26T08:53:23;7.00;66.20
6078;DHT22;3067;49.470;10.394;2024-02-26T08:55:52;6.90;67.10
6078;DHT22;3067;49.470;10.394;2024-02-26T08:58:20;6.70;68.00
6078;DHT22;3067;49.470;10.394;2024-02-26T09:00:48;6.60;68.00
6078;DHT22;3067;49.470;10.394;2024-02-26T09:03:15;6.60;68.40
6078;DHT22;3067;49.470;10.394;2024-02-26T09:05:42;6.80;68.40
6078;DHT22;3067;49.470;10.394;2024-02-26T09:08:09;6.90;68.30
6078;DHT22;3067;49.470;10.394;2024-02-26T09:10:37;7.00;67.80
6078;DHT22;3067;49.470;10.394;2024-02-26T09:13:04;7.10;67.80
6078;DHT22;3067;49.470;10.394;2024-02-26T09:15:33;7.20;66.70
6078;DHT22;3067;49.470;10.394;2024-02-26T09:18:00;7.30;65.60
6078;DHT22;3067;49.470;10.394;2024-02-26T09:20:28;7.40;65.40
6078;DHT22;3067;49.470;10.394;2024-02-26T09:22:56;7.50;64.70
6078;DHT22;3067;49.470;10.394;2024-02-26T09:25:23;7.50;64.80
6078;DHT22;3067;49.470;10.394;2024-02-26T09:27:50;7.60;65.00
6078;DHT22;3067;49.470;10.394;2024-02-26T09:30:17;7.80;64.40
6078;DHT22;3067;49.470;10.394;2024-02-26T09:32:47;7.80;63.70
6078;DHT22;3067;49.470;10.394;2024-02-26T09:35:14;7.90;64.00
6078;DHT22;3067;49.470;10.394;2024-02-26T09:37:41;7.90;63.70
6078;DHT22;3067;49.470;10.394;2024-02-26T09:40:10;7.90;63.90
6078;DHT22;3067;49.470;10.394;2024-02-26T09:42:42;8.00;64.30
6078;DHT22;3067;49.470;10.394;2024-02-26T09:45:12;8.00;64.20
6078;DHT22;3067;49.470;10.394;2024-02-26T09:47:42;8.10;64.20
6078;DHT22;3067;49.470;10.394;2024-02-26T09:50:12;8.20;63.90
6078;DHT22;3067;49.470;10.394;2024-02-26T09:52:41;8.20;63.90
6078;DHT22;3067;49.470;10.394;2024-02-26T09:55:09;8.30;64.10
6078;DHT22;3067;49.470;10.394;2024-02-26T09:57:37;8.40;63.50
6078;DHT22;3067;49.470;10.394;2024-02-26T10:00:05;8.60;64.00
6078;DHT22;3067;49.470;10.394;2024-02-26T10:02:36;8.60;62.80
6078;DHT22;3067;49.470;10.394;2024-02-26T10:05:07;8.70;63.10
6078;DHT22;3067;49.470;10.394;2024-02-26T10:07:38;8.90;61.90
6078;DHT22;3067;49.470;10.394;2024-02-26T10:10:05;8.90;60.80
6078;DHT22;3067;49.470;10.394;2024-02-26T10:12:32;9.00;61.10
6078;DHT22;3067;49.470;10.394;2024-02-26T10:14:59;9.00;60.60
6078;DHT22;3067;49.470;10.394;2024-02-26T10:17:27;9.00;60.40
6078;DHT22;3067;49.470;10.394;2024-02-26T10:19:54;9.00;60.10
6078;DHT22;3067;49.470;10.394;2024-02-26T10:22:22;9.10;60.20
6078;DHT22;3067;49.470;10.394;2024-02-26T10:24:50;9.20;59.70
6078;DHT22;3067;49.470;10.394;2024-02-26T10:27:19;9.20;59.80
6078;DHT22;3067;49.470;10.394;2024-02-26T10:29:46;9.20;60.00
6078;DHT22;3067;49.470;10.394;2024-02-26T10:32:13;9.20;60.00
6078;DHT22;3067;49.470;10.394;2024-02-26T10:34:40;9.30;60.10
6078;DHT22;3067;49.470;10.394;2024-02-26T10:37:09;9.40;60.00
6078;DHT22;3067;49.470;10.394;2024-02-26T10:39:36;9.40;59.90
6078;DHT22;3067;49.470;10.394;2024-02-26T10:42:12;9.40;59.30
6078;DHT22;3067;49.470;10.394;2024-02-26T10:44:40;9.40;59.10
6078;DHT22;3067;49.470;10.394;2024-02-26T10:47:09;9.40;59.30
6078;DHT22;3067;49.470;10.394;2024-02-26T10:49:36;9.50;59.40
6078;DHT22;3067;49.470;10.394;2024-02-26T10:52:04;9.50;59.60
6078;DHT22;3067;49.470;10.394;2024-02-26T10:54:33;9.60;59.10
6078;DHT22;3067;49.470;10.394;2024-02-26T10:57:04;9.70;58.70
6078;DHT22;3067;49.470;10.394;2024-02-26T10:59:33;9.80;58.60
6078;DHT22;3067;49.470;10.394;2024-02-26T11:02:02;10.00;58.50
6078;DHT22;3067;49.470;10.394;2024-02-26T11:04:30;10.00;57.70
6078;DHT22;3067;49.470;10.394;2024-02-26T11:06:58;10.10;57.40
6078;DHT22;3067;49.470;10.394;2024-02-26T11:09:27;10.10;56.70
6078;DHT22;3067;49.470;10.394;2024-02-26T11:11:54;10.20;56.70
6078;DHT22;3067;49.470;10.394;2024-02-26T11:14:25;10.30;55.90
6078;DHT22;3067;49.470;10.394;2024-02-26T11:16:53;10.40;55.90
6078;DHT22;3067;49.470;10.394;2024-02-26T11:19:21;10.40;55.00
6078;DHT22;3067;49.470;10.394;2024-02-26T11:21:48;10.50;55.40
6078;DHT22;3067;49.470;10.394;2024-02-26T11:24:16;10.50;55.30
6078;DHT22;3067;49.470;10.394;2024-02-26T11:26:48;10.60;55.20
6078;DHT22;3067;49.470;10.394;2024-02-26T11:29:19;10.60;55.00
6078;DHT22;3067;49.470;10.394;2024-02-26T11:31:50;10.70;54.80
6078;DHT22;3067;49.470;10.394;2024-02-26T11:34:17;10.70;55.00
6078;DHT22;3067;49.470;10.394;2024-02-26T11:36:44;10.80;54.80
6078;DHT22;3067;49.470;10.394;2024-02-26T11:39:12;10.90;54.70
6078;DHT22;3067;49.470;10.394;2024-02-26T11:41:42;10.90;54.70
6078;DHT22;3067;49.470;10.394;2024-02-26T11:44:09;11.00;54.20
6078;DHT22;3067;49.470;10.394;2024-02-26T11:46:39;11.10;53.40
6078;DHT22;3067;49.470;10.394;2024-02-26T11:49:32;11.10;53.30
6078;DHT22;3067;49.470;10.394;2024-02-26T11:52:05;11.10;53.00
6078;DHT22;3067;49.470;10.394;2024-02-26T11:54:40;11.30;52.60
6078;DHT22;3067;49.470;10.394;2024-02-26T11:57:27;11.40;52.80
6078;DHT22;3067;49.470;10.394;2024-02-26T11:59:54;11.50;52.90
6078;DHT22;3067;49.470;10.394;2024-02-26T12:02:42;11.70;51.90
6078;DHT22;3067;49.470;10.394;2024-02-26T12:05:14;11.80;52.00
6078;DHT22;3067;49.470;10.394;2024-02-26T12:07:44;11.90;51.40
6078;DHT22;3067;49.470;10.394;2024-02-26T12:10:20;12.00;50.90
6078;DHT22;3067;49.470;10.394;2024-02-26T12:12:53;12.10;50.20
6078;DHT22;3067;49.470;10.394;2024-02-26T12:15:23;12.20;49.60
6078;DHT22;3067;49.470;10.394;2024-02-26T12:17:52;12.30;49.60
6078;DHT22;3067;49.470;10.394;2024-02-26T12:20:20;12.30;49.50
6078;DHT22;3067;49.470;10.394;2024-02-26T12:22:50;12.30;49.20
6078;DHT22;3067;49.470;10.394;2024-02-26T12:25:20;12.30;49.50
6078;DHT22;3067;49.470;10.394;2024-02-26T12:27:48;12.40;49.30
6078;DHT22;3067;49.470;10.394;2024-02-26T12:30:15;12.40;49.10
6078;DHT22;3067;49.470;10.394;2024-02-26T12:32:43;12.50;49.40
6078;DHT22;3067;49.470;10.394;2024-02-26T12:35:10;12.50;49.00
6078;DHT22;3067;49.470;10.394;2024-02-26T12:37:41;12.50;49.10
6078;DHT22;3067;49.470;10.394;2024-02-26T12:40:09;12.50;49.20
6078;DHT22;3067;49.470;10.394;2024-02-26T12:42:37;12.50;49.20
6078;DHT22;3067;49.470;10.394;2024-02-26T12:45:07;12.60;49.10
6078;DHT22;3067;49.470;10.394;2024-02-26T12:47:36;12.60;48.80
6078;DHT22;3067;49.470;10.394;2024-02-26T12:50:05;12.70;48.90
6078;DHT22;3067;49.470;10.394;2024-02-26T12:52:33;12.70;48.50
6078;DHT22;3067;49.470;10.394;2024-02-26T12:55:02;12.70;48.30
6078;DHT22;3067;49.470;10.394;2024-02-26T12:57:31;12.70;47.10
6078;DHT22;3067;49.470;10.394;2024-02-26T12:59:58;12.50;47.90
6078;DHT22;3067;49.470;10.394;2024-02-26T13:02:26;12.50;48.70
6078;DHT22;3067;49.470;10.394;2024-02-26T13:04:54;12.50;48.60
6078;DHT22;3067;49.470;10.394;2024-02-26T13:07:22;12.50;49.10
6078;DHT22;3067;49.470;10.394;2024-02-26T13:09:49;12.50;49.20
6078;DHT22;3067;49.470;10.394;2024-02-26T13:12:19;12.50;49.50
6078;DHT22;3067;49.470;10.394;2024-02-26T13:14:46;12.40;49.80
6078;DHT22;3067;49.470;10.394;2024-02-26T13:17:14;12.30;49.10
6078;DHT22;3067;49.470;10.394;2024-02-26T13:19:49;12.20;49.70
6078;DHT22;3067;49.470;10.394;2024-02-26T13:22:20;12.30;50.10
6078;DHT22;3067;49.470;10.394;2024-02-26T13:24:53;12.40;50.30
6078;DHT22;3067;49.470;10.394;2024-02-26T13:27:23;12.50;50.40
6078;DHT22;3067;49.470;10.394;2024-02-26T13:30:03;12.50;50.00
6078;DHT22;3067;49.470;10.394;2024-02-26T13:32:32;12.50;49.80
6078;DHT22;3067;49.470;10.394;2024-02-26T13:35:07;12.50;50.00
6078;DHT22;3067;49.470;10.394;2024-02-26T13:37:34;12.50;50.20
6078;DHT22;3067;49.470;10.394;2024-02-26T13:40:04;12.60;50.40
6078;DHT22;3067;49.470;10.394;2024-02-26T13:42:33;12.70;50.30
6078;DHT22;3067;49.470;10.394;2024-02-26T13:45:00;12.80;50.40
6078;DHT22;3067;49.470;10.394;2024-02-26T13:47:28;12.80;50.10
6078;DHT22;3067;49.470;10.394;2024-02-26T13:49:55;12.90;50.00
6078;DHT22;3067;49.470;10.394;2024-02-26T13:52:22;12.90;49.90
6078;DHT22;3067;49.470;10.394;2024-02-26T13:54:49;12.90;50.40
6078;DHT22;3067;49.470;10.394;2024-02-26T13:57:16;12.90;50.20
6078;DHT22;3067;49.470;10.394;2024-02-26T13:59:46;12.90;49.20
6078;DHT22;3067;49.470;10.394;2024-02-26T14:02:13;12.80;49.10
6078;DHT22;3067;49.470;10.394;2024-02-26T14:04:40;12.80;50.00
6078;DHT22;3067;49.470;10.394;2024-02-26T14:07:07;12.80;49.40
6078;DHT22;3067;49.470;10.394;2024-02-26T14:09:35;12.70;49.40
6078;DHT22;3067;49.470;10.394;2024-02-26T14:12:02;12.70;49.60
6078;DHT22;3067;49.470;10.394;2024-02-26T14:14:30;12.60;49.50
6078;DHT22;3067;49.470;10.394;2024-02-26T14:17:04;12.50;49.50
6078;DHT22;3067;49.470;10.394;2024-02-26T14:19:32;12.50;49.20
6078;DHT22;3067;49.470;10.394;2024-02-26T14:21:59;12.50;49.00
6078;DHT22;3067;49.470;10.394;2024-02-26T14:24:26;12.50;49.70
6078;DHT22;3067;49.470;10.394;2024-02-26T14:26:53;12.50;50.30
6078;DHT22;3067;49.470;10.394;2024-02-26T14:29:20;12.50;50.80
6078;DHT22;3067;49.470;10.394;2024-02-26T14:31:47;12.50;50.60
6078;DHT22;3067;49.470;10.394;2024-02-26T14:34:16;12.50;50.40
6078;DHT22;3067;49.470;10.394;2024-02-26T14:36:44;12.50;50.30
6078;DHT22;3067;49.470;10.394;2024-02-26T14:39:12;12.50;50.20
6078;DHT22;3067;49.470;10.394;2024-02-26T14:41:39;12.50;50.00
6078;DHT22;3067;49.470;10.394;2024-02-26T14:44:06;12.50;49.80
6078;DHT22;3067;49.470;10.394;2024-02-26T14:46:34;12.50;49.60
6078;DHT22;3067;49.470;10.394;2024-02-26T14:49:01;12.50;50.00
6078;DHT22;3067;49.470;10.394;2024-02-26T14:51:29;12.40;50.10
6078;DHT22;3067;49.470;10.394;2024-02-26T14:53:56;12.30;50.50
6078;DHT22;3067;49.470;10.394;2024-02-26T14:56:24;12.30;50.80
6078;DHT22;3067;49.470;10.394;2024-02-26T14:58:52;12.20;51.50
6078;DHT22;3067;49.470;10.394;2024-02-26T15:01:19;12.20;51.60
6078;DHT22;3067;49.470;10.394;2024-02-26T15:03:46;12.10;51.90
6078;DHT22;3067;49.470;10.394;2024-02-26T15:06:13;12.10;52.30
6078;DHT22;3067;49.470;10.394;2024-02-26T15:08:41;12.10;52.50
6078;DHT22;3067;49.470;10.394;2024-02-26T15:11:08;12.00;52.90
6078;DHT22;3067;49.470;10.394;2024-02-26T15:13:36;11.90;52.90
6078;DHT22;3067;49.470;10.394;2024-02-26T15:16:04;11.90;52.70
6078;DHT22;3067;49.470;10.394;2024-02-26T15:18:31;11.90;52.10
6078;DHT22;3067;49.470;10.394;2024-02-26T15:20:58;11.80;51.90
6078;DHT22;3067;49.470;10.394;2024-02-26T15:23:25;11.80;52.30
6078;DHT22;3067;49.470;10.394;2024-02-26T15:25:55;11.80;52.00
6078;DHT22;3067;49.470;10.394;2024-02-26T15:28:22;11.80;52.20
6078;DHT22;3067;49.470;10.394;2024-02-26T15:30:51;11.90;52.30
6078;DHT22;3067;49.470;10.394;2024-02-26T15:33:18;11.90;52.40
6078;DHT22;3067;49.470;10.394;2024-02-26T15:35:45;11.90;52.20
6078;DHT22;3067;49.470;10.394;2024-02-26T15:38:12;11.90;52.40
6078;DHT22;3067;49.470;10.394;2024-02-26T15:40:40;12.00;52.60
6078;DHT22;3067;49.470;10.394;2024-02-26T15:43:08;12.00;52.60
6078;DHT22;3067;49.470;10.394;2024-02-26T15:45:36;11.90;52.80
6078;DHT22;3067;49.470;10.394;2024-02-26T15:48:03;11.90;53.10
6078;DHT22;3067;49.470;10.394;2024-02-26T15:50:31;11.90;53.30
6078;DHT22;3067;49.470;10.394;2024-02-26T15:52:58;11.90;53.40
6078;DHT22;3067;49.470;10.394;2024-02-26T15:55:25;11.90;53.50
6078;DHT22;3067;49.470;10.394;2024-02-26T15:57:52;11.90;53.40
6078;DHT22;3067;49.470;10.394;2024-02-26T16:00:20;11.90;53.50
6078;DHT22;3067;49.470;10.394;2024-02-26T16:02:48;11.80;53.50